ROTAER D-AMDT 37/19 D-AMDT 48/19 Ver Mudanças

Barreiras ( SNBR ) / BARREIRAS, BA 12 04 45S/045 00 34W
AD PUB Governo do Estado 19WNN UTC-3 VFR L21 , L26 748 (2454)

08 - L12 - ( 1600x30 ASPH 35/F/A/X/T L14 , L15 ) - L12 - 26

SBRE (CINDACTA 3)
RDONAV -
VOR/DME BRR 114.3 1204.80S/04500.43W
CMB- [1] PF TF
MET -

[2] [3]

RMK -

DADOS GEOGRÁFICOS E ADMINISTRATIVOS DE AERÓDROMO
  1. Contatos telefônicos: (71) 3241-1982, (77) 8116-0829, (71) 9670-6361,(77) 9993-2336 e (77) 9909-5421 - São Francisco
HORÁRIO DE FUNCIONAMENTO
  1. OPS VFR noturna PPR e COOR O/R com antecedência MNM de 1 hora através dos TEL: (77) 9125-9724, 3611-2361 ou 9931-6210
OBSTÁCULO DE AERÓDROMO
  1. OBS OBST (antena) DIST 5578M da THR 08, no AZM 203DEG, ELEV 2444FT
COMPL -
  • [1] (DLY 0700-1730)
  • [2] MET ERAA (ESTACAO DE RADIODIFUSAO AUTOMATICA DE AERODROMO) FREQ 132.350MHZ.
  • [3] PARA ACESSAR METAR/SPECI AUTO USAR CODIGO DE LOCALIDADE SNBR
TEMP (0)

Suplementos AIP (0)

NOTAM (2)

AGA

B1723/19 N 19/11/2019 18:59
SER COMBUSTIVEL - OPR SHELL DLY 0530-1500. DEMAIS HR O/R THRU TEL (71)99670-6338, (71)99663-6362 E (66)99931-2799


NAV

B1709/19 N 14/11/2019 21:04
UA (FLT RPA) ACONTECERA CENTRO COORD 120832.73S0445959.78W RAIO 500M


Nascer/Por do Sol

08:24

21:07


METAR

201200Z AUTO 06005KT 010V110 CAVOK 28/15 Q1017=

TAF

200400Z 2006/2018 18005KT CAVOK TN21/2006Z TX32/2018Z BECMG 2013/2015 08007KT RMK PAY=


Cartas (0)


Rotas Preferenciais (0)